Time;durP1;ratioP1;P1;durP2;ratioP2;P2;SDS_P1;SDS_P2;PMS_P1;PMS_P2;Temp;Humidity;BMP_temperature;BMP_pressure;BME280_temperature;BME280_humidity;BME280_pressure;Samples;Min_cycle;Max_cycle;Signal;HPM_P1;HPM_P2
2022/04/03 00:02:24;;;;;;;10.15;6.95;;;3.20;98.70;;;2.38;100.00;100759.44;5009815;28;20060;-79
2022/04/03 00:04:51;;;;;;;7.85;6.93;;;3.20;98.60;;;2.36;100.00;100768.94;5009135;28;20057;-78
2022/04/03 00:07:18;;;;;;;11.07;6.75;;;3.20;98.50;;;2.34;100.00;100761.13;5008668;28;20052;-77
2022/04/03 00:09:46;;;;;;;11.07;7.53;;;3.10;98.50;;;2.40;100.00;100766.41;4991958;28;20061;-78
2022/04/03 00:12:13;;;;;;;8.90;7.10;;;3.20;98.60;;;2.41;100.00;100764.66;5010243;28;20061;-78
2022/04/03 00:14:40;;;;;;;9.40;7.43;;;3.10;98.60;;;2.44;100.00;100769.94;5006065;28;20773;-78
2022/04/03 00:17:07;;;;;;;10.77;7.50;;;3.10;98.50;;;2.41;100.00;100762.97;5009258;28;20125;-77
2022/04/03 00:19:34;;;;;;;8.05;7.25;;;3.20;98.50;;;2.38;100.00;100767.22;5008200;28;20051;-77
2022/04/03 00:22:01;;;;;;;11.38;7.57;;;3.20;98.80;;;2.37;100.00;100768.97;4974828;28;20068;-79
2022/04/03 00:24:28;;;;;;;9.63;7.50;;;0.90;97.90;;;2.38;100.00;100767.22;5006180;28;20830;-78
2022/04/03 00:26:58;;;;;;;9.05;7.43;;;3.00;98.40;;;2.46;100.00;100769.94;5008386;28;20045;-78
2022/04/03 00:29:25;;;;;;;13.20;7.30;;;3.20;98.50;;;2.43;100.00;100767.31;5011904;28;20050;-78
2022/04/03 00:31:52;;;;;;;8.77;7.75;;;3.20;98.50;;;2.47;100.00;100780.38;5009133;28;20046;-77
2022/04/03 00:34:19;;;;;;;11.63;8.30;;;3.20;98.50;;;2.43;100.00;100768.19;5006926;28;20054;-77
2022/04/03 00:36:49;;;;;;;12.32;8.48;;;3.20;98.50;;;2.44;100.00;100769.06;5006850;28;20472;-77
2022/04/03 00:39:16;;;;;;;10.18;7.40;;;3.20;98.60;;;2.46;100.00;100780.34;5008498;28;20081;-79
2022/04/03 00:41:46;;;;;;;10.57;7.38;;;3.20;98.60;;;2.48;100.00;100773.44;5011224;28;20061;-79
2022/04/03 00:44:14;;;;;;;;;;;3.30;98.70;;;2.48;100.00;100773.44;5008229;28;20054;-77
2022/04/03 00:46:44;;;;;;;10.60;6.63;;;3.30;98.70;;;2.48;100.00;100782.13;4991101;28;19925;-77
2022/04/03 00:49:11;;;;;;;8.80;6.70;;;5.60;99.20;;;2.44;100.00;100779.44;5008537;28;20050;-78
2022/04/03 00:51:39;;;;;;;7.65;6.50;;;3.30;98.60;;;2.52;100.00;100777.84;5006887;28;20100;-78
2022/04/03 00:54:07;;;;;;;10.90;7.35;;;4.00;98.90;;;2.46;100.00;100783.81;5004333;28;20042;-77
2022/04/03 00:56:35;;;;;;;10.93;7.20;;;3.40;98.70;;;2.51;100.00;100784.75;5005445;28;20053;-78
2022/04/03 00:59:02;;;;;;;9.65;7.28;;;3.30;98.70;;;2.48;100.00;100789.03;4989828;28;20053;-78
2022/04/03 01:01:29;;;;;;;10.05;6.75;;;4.80;99.00;;;2.50;100.00;100788.22;4988753;28;20049;-78
2022/04/03 01:03:56;;;;;;;7.35;6.45;;;5.20;99.20;;;2.50;100.00;100785.59;5007705;28;20113;-78
2022/04/03 01:06:23;;;;;;;8.13;6.80;;;3.20;98.70;;;2.48;100.00;100786.44;5010456;28;20046;-78
2022/04/03 01:08:52;;;;;;;7.38;6.60;;;3.40;98.70;;;2.43;100.00;100781.19;4995493;28;20046;-78
2022/04/03 01:11:21;;;;;;;9.00;6.75;;;3.30;98.70;;;2.46;100.00;100786.41;5013771;28;20050;-78
2022/04/03 01:13:50;;;;;;;9.20;7.10;;;3.30;98.90;;;2.53;100.00;100790.00;4994695;28;20122;-77
2022/04/03 01:16:18;;;;;;;8.10;6.90;;;3.30;98.80;;;2.51;100.00;100783.91;4980360;28;20667;-77
2022/04/03 01:18:46;;;;;;;7.95;6.60;;;3.30;98.90;;;2.52;100.00;100791.69;4994610;28;20057;-78
2022/04/03 01:21:14;;;;;;;6.72;5.93;;;3.30;98.80;;;2.51;100.00;100789.09;4981965;28;20061;-78
2022/04/03 01:23:42;;;;;;;10.10;6.28;;;3.30;98.70;;;2.48;100.00;100779.53;4996435;28;20050;-80
2022/04/03 01:26:10;;;;;;;9.55;6.22;;;3.30;98.70;;;2.43;100.00;100783.78;5008592;28;20077;-79
2022/04/03 01:28:38;;;;;;;7.70;6.68;;;3.30;98.80;;;2.47;100.00;100788.16;4992221;28;20034;-79
2022/04/03 01:31:05;;;;;;;6.97;6.25;;;3.20;98.70;;;2.49;100.00;100795.97;4991546;28;20046;-77
2022/04/03 01:33:36;;;;;;;9.25;7.00;;;3.30;98.70;;;2.50;100.00;100784.75;5005423;28;20390;-77
2022/04/03 01:36:04;;;;;;;9.82;6.10;;;3.30;98.70;;;2.55;100.00;100789.16;5012359;28;20052;-78
2022/04/03 01:38:31;;;;;;;7.18;6.00;;;3.30;98.80;;;2.54;100.00;100792.59;5012034;28;20057;-78
2022/04/03 01:40:58;;;;;;;10.40;6.47;;;3.30;98.70;;;2.48;100.00;100787.31;5011815;28;20097;-77
2022/04/03 01:43:25;;;;;;;7.75;6.47;;;3.30;98.70;;;2.51;100.00;100792.56;5008835;28;20058;-77
2022/04/03 01:45:52;;;;;;;11.52;6.10;;;3.30;98.80;;;2.50;100.00;100787.34;5010058;28;20060;-77
2022/04/03 01:48:19;;;;;;;7.18;6.03;;;3.20;98.80;;;2.51;100.00;100784.75;5026598;28;20100;-78
2022/04/03 01:50:48;;;;;;;6.88;6.18;;;3.30;99.00;;;2.52;100.00;100783.06;5010762;28;20108;-77
2022/04/03 01:53:18;;;;;;;9.07;5.60;;;3.20;98.90;;;2.57;100.00;100788.28;5009961;28;20045;-78
2022/04/03 01:55:56;;;;;;;8.95;6.38;;;3.20;98.90;;;2.52;100.00;100789.09;5011396;28;20053;-79
2022/04/03 01:58:23;;;;;;;9.05;6.65;;;3.40;98.90;;;2.50;100.00;100792.53;5012994;28;20073;-79
2022/04/03 02:00:51;;;;;;;8.80;6.80;;;5.60;99.60;;;2.51;100.00;100792.56;5012134;28;20052;-78
2022/04/03 02:03:18;;;;;;;10.57;6.97;;;3.30;99.00;;;2.53;100.00;100784.78;4993713;28;20053;-78
2022/04/03 02:06:03;;;;;;;7.97;6.35;;;3.30;99.00;;;2.51;100.00;100789.09;5023381;28;20091;-77
2022/04/03 02:08:30;;;;;;;8.48;6.72;;;3.30;99.10;;;2.50;100.00;100792.53;5011236;28;20057;-78
2022/04/03 02:10:58;;;;;;;10.73;6.90;;;3.30;99.10;;;2.50;100.00;100793.41;5010068;28;20046;-77
2022/04/03 02:13:25;;;;;;;7.53;6.38;;;3.30;99.20;;;2.50;100.00;100796.00;5004535;28;20050;-78
2022/04/03 02:15:52;;;;;;;9.50;6.82;;;3.30;99.10;;;2.52;100.00;100788.25;4992636;28;20047;-77
2022/04/03 02:18:19;;;;;;;7.28;6.43;;;5.30;99.60;;;2.55;100.00;100791.75;4989598;28;20042;-77
2022/04/03 02:20:47;;;;;;;8.32;6.38;;;4.00;99.40;;;2.47;100.00;100792.47;4972981;28;20046;-78
2022/04/03 02:23:14;;;;;;;8.20;5.90;;;3.30;99.00;;;2.53;100.00;100796.03;4988846;28;20504;-77
2022/04/03 02:25:42;;;;;;;7.55;6.53;;;3.40;99.10;;;2.54;100.00;100792.59;4989389;28;20068;-78
2022/04/03 02:28:10;;;;;;;10.55;7.25;;;3.30;99.00;;;2.51;100.00;100795.16;4989194;28;20046;-77
2022/04/03 02:30:37;;;;;;;7.25;6.38;;;5.20;99.50;;;2.50;100.00;100795.16;4973341;28;20057;-77
2022/04/03 02:33:05;;;;;;;9.07;6.65;;;3.30;99.00;;;2.53;100.00;100798.63;5005147;28;20676;-77
2022/04/03 02:35:33;;;;;;;9.10;6.60;;;3.30;98.90;;;2.49;100.00;100803.75;5025583;28;20056;-77
2022/04/03 02:38:00;;;;;;;8.40;6.78;;;3.40;99.00;;;2.51;100.00;100805.53;5007334;28;20049;-77
2022/04/03 02:40:27;;;;;;;8.25;6.55;;;3.30;99.00;;;2.52;100.00;100802.09;5013271;28;20392;-79
2022/04/03 02:42:54;;;;;;;7.70;6.28;;;3.30;99.00;;;2.53;100.00;100805.56;5010444;28;20052;-78
2022/04/03 02:45:21;;;;;;;8.20;5.68;;;3.30;99.10;;;2.52;100.00;100804.69;5009366;28;20054;-77
2022/04/03 02:47:54;;;;;;;9.75;6.82;;;3.30;99.00;;;2.52;100.00;100801.22;5012011;28;20041;-77
2022/04/03 02:50:24;;;;;;;8.38;6.55;;;3.30;98.90;;;2.45;100.00;100801.97;5011193;28;20613;-78
2022/04/03 02:52:54;;;;;;;7.30;5.88;;;3.30;99.00;;;2.50;100.00;100805.53;5010641;28;20097;-77
2022/04/03 02:55:23;;;;;;;7.40;6.30;;;3.40;99.10;;;2.44;100.00;100805.41;4996536;28;20491;-78
2022/04/03 02:57:55;;;;;;;9.30;6.90;;;3.40;99.10;;;2.47;100.00;100800.25;5012134;28;20045;-78
2022/04/03 03:00:22;;;;;;;7.30;6.22;;;5.20;99.60;;;2.47;100.00;100808.06;4995568;28;20050;-78
2022/04/03 03:02:51;;;;;;;8.00;6.38;;;5.00;99.60;;;2.44;100.00;100803.72;5012614;28;20061;-78
2022/04/03 03:05:18;;;;;;;7.73;5.30;;;3.20;99.00;;;2.45;100.00;100804.56;4964595;28;20500;-77
2022/04/03 03:07:46;;;;;;;10.35;6.13;;;3.30;99.00;;;2.47;100.00;100819.34;4988575;28;20293;-78
2022/04/03 03:10:19;;;;;;;7.65;6.20;;;3.50;99.00;;;2.41;100.00;100814.91;4972831;28;20053;-78
2022/04/03 03:12:47;;;;;;;7.28;6.57;;;4.00;99.20;;;2.46;100.00;100812.41;5005980;28;20050;-78
2022/04/03 03:15:15;;;;;;;6.55;5.22;;;3.20;99.20;;;2.49;100.00;100815.03;4995279;28;20065;-77
2022/04/03 03:17:42;;;;;;;7.28;5.18;;;5.20;99.50;;;2.53;100.00;100811.63;4992276;28;20038;-77
2022/04/03 03:20:11;;;;;;;6.25;5.65;;;4.90;99.40;;;2.55;100.00;100814.25;5010483;28;20053;-78
2022/04/03 03:22:42;;;;;;;7.75;5.90;;;3.40;98.80;;;2.57;100.00;100809.06;4995147;28;20052;-77
2022/04/03 03:25:12;;;;;;;7.53;5.80;;;3.30;98.70;;;2.54;100.00;100815.13;4993397;28;20475;-77
2022/04/03 03:27:40;;;;;;;7.45;5.80;;;3.40;98.70;;;2.53;100.00;100814.22;4992088;28;20081;-77
2022/04/03 03:30:08;;;;;;;6.03;5.40;;;3.20;98.60;;;2.57;100.00;100822.94;5010403;28;20045;-78
2022/04/03 03:32:36;;;;;;;5.95;5.35;;;3.30;98.70;;;2.52;100.00;100822.88;5011648;28;20046;-78
2022/04/03 03:35:05;;;;;;;6.18;5.43;;;3.20;98.60;;;2.56;100.00;100823.81;5011568;28;20506;-78
2022/04/03 03:37:33;;;;;;;7.43;5.60;;;3.40;98.70;;;2.47;100.00;100806.34;4995819;28;20438;-78
2022/04/03 03:40:00;;;;;;;11.20;6.43;;;3.30;98.80;;;2.51;100.00;100823.72;5011630;28;20057;-78
2022/04/03 03:42:27;;;;;;;9.88;5.80;;;3.30;98.70;;;2.50;100.00;100824.56;5011361;28;20053;-78
2022/04/03 03:44:55;;;;;;;10.20;5.60;;;3.40;98.70;;;2.52;100.00;100824.63;4994744;28;20038;-78
2022/04/03 03:47:22;;;;;;;7.32;5.28;;;4.30;99.00;;;2.49;100.00;100822.81;5013138;28;20042;-77
2022/04/03 03:49:53;;;;;;;7.93;6.10;;;3.30;98.80;;;2.47;100.00;100821.03;5007781;28;20050;-77
2022/04/03 03:52:19;;;;;;;9.13;5.20;;;3.30;98.90;;;2.51;100.00;100828.91;4991376;28;20053;-77
2022/04/03 03:54:47;;;;;;;7.63;6.75;;;3.30;99.00;;;2.46;100.00;100824.50;5007030;28;20073;-78
2022/04/03 03:57:14;;;;;;;9.05;6.90;;;3.30;98.90;;;2.47;100.00;100834.91;5007401;28;20096;-77
2022/04/03 03:59:41;;;;;;;7.60;5.93;;;3.20;98.90;;;2.47;100.00;100832.31;4991211;28;20132;-77
2022/04/03 04:02:09;;;;;;;6.20;5.22;;;3.30;98.90;;;2.41;100.00;100834.78;5004669;28;20042;-77
2022/04/03 04:04:36;;;;;;;7.25;5.90;;;3.20;99.00;;;2.42;100.00;100836.56;5007795;28;20042;-79
2022/04/03 04:07:04;;;;;;;7.78;6.05;;;3.60;99.10;;;2.45;100.00;100840.94;4994969;28;20073;-79
2022/04/03 04:09:31;;;;;;;8.63;6.05;;;3.20;99.00;;;2.44;100.00;100837.47;4995197;28;20140;-78
2022/04/03 04:11:58;;;;;;;6.70;5.95;;;3.20;99.20;;;2.47;100.00;100850.50;4991505;28;20046;-77
2022/04/03 04:14:25;;;;;;;9.13;6.57;;;3.20;99.20;;;2.48;100.00;100846.16;4990664;28;20057;-77
2022/04/03 04:16:52;;;;;;;12.23;7.97;;;3.30;99.30;;;2.47;100.00;100845.31;4991003;28;20056;-77
2022/04/03 04:19:19;;;;;;;15.95;11.98;;;3.30;99.10;;;2.43;100.00;100838.31;4971904;28;20038;-78
2022/04/03 04:21:46;;;;;;;46.05;22.17;;;3.80;99.20;;;2.47;100.00;100852.22;4971809;28;20057;-78
2022/04/03 04:24:13;;;;;;;58.05;30.40;;;3.20;99.10;;;2.48;100.00;100856.56;5005896;28;20050;-78
2022/04/03 04:26:40;;;;;;;37.97;22.08;;;3.30;99.10;;;2.46;100.00;100859.16;5008907;28;20058;-79
2022/04/03 04:29:07;;;;;;;37.22;21.77;;;3.20;99.20;;;2.47;100.00;100863.50;4973841;28;20060;-78
2022/04/03 04:31:35;;;;;;;26.40;17.63;;;3.20;99.20;;;2.46;100.00;100863.44;4991870;28;20663;-79
2022/04/03 04:34:03;;;;;;;14.02;10.30;;;3.30;99.30;;;2.45;100.00;100865.19;5023338;28;20050;-77
2022/04/03 04:36:30;;;;;;;8.65;7.63;;;3.10;99.30;;;2.46;100.00;100868.66;5006517;28;20137;-77
2022/04/03 04:39:00;;;;;;;8.52;7.22;;;5.20;99.70;;;2.49;100.00;100869.59;5007213;28;20473;-77
2022/04/03 04:41:27;;;;;;;8.95;7.30;;;3.20;99.20;;;2.48;100.00;100866.94;5023797;28;20049;-78
2022/04/03 04:43:54;;;;;;;14.48;8.75;;;3.20;99.20;;;2.50;100.00;100867.88;5007234;28;20128;-78
2022/04/03 04:46:21;;;;;;;21.90;11.73;;;3.30;99.20;;;2.48;100.00;100872.16;5007479;28;20045;-77
2022/04/03 04:48:49;;;;;;;17.52;12.85;;;3.30;99.10;;;2.47;100.00;100879.09;5006801;28;20126;-77
2022/04/03 04:51:17;;;;;;;9.75;6.80;;;3.30;99.10;;;2.46;100.00;100879.94;5008331;28;20046;-78
2022/04/03 04:53:44;;;;;;;9.27;8.02;;;3.30;99.10;;;2.50;100.00;100884.31;5007159;28;20521;-78
2022/04/03 04:56:12;;;;;;;7.85;6.43;;;3.30;99.00;;;2.49;100.00;100879.97;5011073;28;20045;-79
2022/04/03 04:58:40;;;;;;;9.52;6.70;;;3.30;99.00;;;2.47;100.00;100888.56;4993208;28;20676;-78
2022/04/03 05:01:07;;;;;;;8.50;5.93;;;3.20;99.00;;;2.43;100.00;100882.47;5024491;28;20056;-77
2022/04/03 05:03:34;;;;;;;6.38;5.60;;;3.30;99.00;;;2.46;100.00;100877.34;5006558;28;20046;-77
2022/04/03 05:06:02;;;;;;;7.53;5.88;;;3.20;99.10;;;2.48;100.00;100887.72;5011282;28;20084;-78
2022/04/03 05:08:30;;;;;;;11.90;7.18;;;3.20;98.90;;;2.48;100.00;100888.63;5012052;28;20054;-78
2022/04/03 05:10:57;;;;;;;8.63;6.95;;;5.10;99.40;;;2.49;100.00;100889.47;5016140;28;20042;-79
2022/04/03 05:13:25;;;;;;;9.35;6.90;;;4.00;99.10;;;2.49;100.00;100886.88;4995283;28;20056;-78
2022/04/03 05:15:54;;;;;;;8.73;7.22;;;5.40;99.60;;;2.49;100.00;100890.38;5026414;28;20121;-79
2022/04/03 05:18:22;;;;;;;8.52;6.60;;;3.30;99.00;;;2.45;100.00;100893.75;5023804;28;20104;-77
2022/04/03 05:20:49;;;;;;;8.20;6.05;;;5.60;99.60;;;2.44;100.00;100894.63;5007106;28;20108;-77
2022/04/03 05:23:16;;;;;;;7.70;6.45;;;3.20;99.00;;;2.44;100.00;100901.53;5022860;28;20072;-77
2022/04/03 05:25:46;;;;;;;7.30;6.10;;;3.30;98.90;;;2.44;100.00;100904.13;5006384;28;20053;-77
2022/04/03 05:28:13;;;;;;;6.57;5.95;;;3.20;99.00;;;2.46;100.00;100913.69;5022541;28;20084;-77
2022/04/03 05:30:40;;;;;;;8.95;6.05;;;5.00;99.50;;;2.40;100.00;100901.47;5022586;28;20503;-77
2022/04/03 05:33:07;;;;;;;7.03;5.80;;;3.20;99.00;;;2.43;100.00;100905.84;5006621;28;20046;-77
2022/04/03 05:35:34;;;;;;;8.93;6.15;;;3.20;98.90;;;2.39;100.00;100912.72;5006677;28;20084;-77
2022/04/03 05:38:01;;;;;;;7.28;5.75;;;3.20;99.00;;;2.45;100.00;100914.53;5006842;28;20448;-78
2022/04/03 05:40:28;;;;;;;7.00;5.95;;;3.20;99.00;;;2.39;100.00;100912.72;5006366;28;20044;-77
2022/04/03 05:42:56;;;;;;;8.27;6.65;;;3.60;99.00;;;2.40;100.00;100921.34;5006627;28;20046;-78
2022/04/03 05:45:23;;;;;;;9.00;5.88;;;3.20;99.00;;;2.45;100.00;100922.34;5006879;28;20491;-78
2022/04/03 05:47:51;;;;;;;7.50;5.88;;;3.30;99.00;;;2.45;100.00;100924.03;5009421;28;20052;-77
2022/04/03 05:50:19;;;;;;;8.35;6.03;;;3.30;99.00;;;2.50;100.00;100920.69;5012054;28;20049;-78
2022/04/03 05:52:53;;;;;;;9.13;5.72;;;3.20;99.00;;;2.49;100.00;100923.25;5010826;28;20474;-77
2022/04/03 05:55:21;;;;;;;7.05;5.90;;;4.40;99.40;;;2.49;100.00;100931.03;5013506;28;20057;-78
2022/04/03 05:57:51;;;;;;;7.38;6.28;;;3.30;99.10;;;2.40;100.00;100922.25;4994247;28;20054;-78
2022/04/03 06:00:23;;;;;;;7.75;6.03;;;5.30;99.60;;;2.50;100.00;100922.44;5010520;28;20050;-76
2022/04/03 06:02:54;;;;;;;7.70;6.40;;;3.30;99.10;;;2.51;100.00;100930.22;5009897;28;20050;-79
2022/04/03 06:05:27;;;;;;;8.35;5.63;;;3.70;99.10;;;2.55;100.00;100938.97;5015667;28;20127;-79
2022/04/03 06:08:02;;;;;;;8.05;6.20;;;4.20;99.20;;;2.52;100.00;100938.91;5010088;28;20050;-76
2022/04/03 06:10:30;;;;;;;8.25;6.57;;;3.40;98.90;;;2.53;100.00;100938.94;5009147;28;20103;-78
2022/04/03 06:12:59;;;;;;;8.55;6.18;;;3.30;98.70;;;2.52;100.00;100929.38;5009562;28;20046;-78
2022/04/03 06:15:36;;;;;;;11.85;6.47;;;3.40;98.80;;;2.59;100.00;100942.50;5010927;28;20049;-78
2022/04/03 06:18:17;;;;;;;8.50;6.45;;;3.40;98.90;;;2.55;100.00;100946.75;5011203;28;20411;-78
2022/04/03 06:20:45;;;;;;;7.95;6.53;;;3.40;98.80;;;2.60;100.00;100950.31;5010952;28;20100;-78
2022/04/03 06:23:14;;;;;;;9.82;6.70;;;5.30;99.30;;;2.57;100.00;100952.84;4993463;28;20050;-78
2022/04/03 06:25:43;;;;;;;7.28;5.93;;;3.30;98.60;;;2.60;100.00;100950.31;4993773;28;20503;-78
2022/04/03 06:28:11;;;;;;;7.00;6.28;;;3.30;98.50;;;2.64;100.00;100957.31;5009514;28;20038;-78
2022/04/03 06:30:38;;;;;;;9.48;6.45;;;4.60;99.00;;;2.67;100.00;100953.91;5010261;28;20073;-78
2022/04/03 06:33:06;;;;;;;7.53;6.75;;;5.40;99.10;;;2.66;100.00;100960.81;4994759;28;20053;-79
2022/04/03 06:35:33;;;;;;;21.05;13.68;;;3.40;98.30;;;2.66;100.00;100967.72;5009926;28;20046;-75
2022/04/03 06:38:00;;;;;;;26.92;16.58;;;3.40;98.30;;;2.66;100.00;100968.63;5001968;28;20056;-78
2022/04/03 06:40:27;;;;;;;31.58;20.00;;;3.40;98.40;;;2.73;100.00;100968.72;5016028;28;20129;-78
2022/04/03 06:42:55;;;;;;;18.35;11.25;;;3.40;98.40;;;2.78;100.00;100977.47;5010572;28;20045;-76
2022/04/03 06:45:24;;;;;;;9.10;7.30;;;3.50;98.50;;;2.77;100.00;100978.31;5010895;28;20046;-79
2022/04/03 06:47:51;;;;;;;11.98;8.88;;;3.60;98.40;;;2.86;100.00;100983.69;5009410;28;20451;-76
2022/04/03 06:50:19;;;;;;;8.50;7.60;;;5.10;98.80;;;2.90;100.00;100982.88;4992847;28;20057;-76
2022/04/03 06:52:47;;;;;;;12.25;9.30;;;4.40;98.50;;;2.92;100.00;100982.94;5024907;28;20046;-75
2022/04/03 06:55:14;;;;;;;7.53;6.72;;;3.70;98.10;;;2.94;100.00;100983.81;5010456;28;20458;-75
2022/04/03 06:57:41;;;;;;;11.40;6.97;;;3.80;98.00;;;2.98;100.00;100980.41;5025323;28;20046;-76
2022/04/03 07:00:11;;;;;;;7.18;5.85;;;3.80;97.90;;;2.98;100.00;100989.09;5008642;28;20141;-76
2022/04/03 07:02:38;;;;;;;7.90;6.70;;;3.70;97.90;;;3.05;100.00;100989.19;5009059;28;20054;-76
2022/04/03 07:05:05;;;;;;;7.38;6.20;;;4.00;97.90;;;3.08;100.00;100991.84;5009909;28;20054;-76
2022/04/03 07:07:32;;;;;;;8.38;7.32;;;3.80;97.80;;;3.12;100.00;100996.25;5010029;28;20042;-76
2022/04/03 07:09:59;;;;;;;8.55;6.90;;;3.90;98.00;;;3.15;100.00;100998.91;5009113;28;20568;-76
2022/04/03 07:12:26;;;;;;;7.40;6.47;;;4.30;98.00;;;3.17;100.00;101004.13;5010202;28;20046;-77
2022/04/03 07:14:56;;;;;;;9.40;7.60;;;4.00;97.80;;;3.16;100.00;101005.88;5010847;28;20046;-77
2022/04/03 07:17:23;;;;;;;8.83;6.70;;;4.00;97.70;;;3.25;100.00;101003.41;5006402;28;20117;-76
2022/04/03 07:19:50;;;;;;;7.50;6.22;;;4.00;97.70;;;3.28;100.00;101005.19;5009175;28;20285;-76
2022/04/03 07:22:17;;;;;;;10.75;8.77;;;4.00;97.60;;;3.29;100.00;101012.13;5008855;28;20046;-77
2022/04/03 07:24:44;;;;;;;13.02;7.93;;;4.10;97.70;;;3.28;100.00;101006.91;5025684;28;20085;-76
2022/04/03 07:27:11;;;;;;;11.50;6.55;;;4.10;97.50;;;3.34;100.00;101010.47;5008230;28;20053;-77
2022/04/03 07:29:38;;;;;;;8.30;6.60;;;4.10;97.50;;;3.36;100.00;101008.81;5013014;28;20053;-76
2022/04/03 07:32:05;;;;;;;8.23;6.15;;;5.80;97.90;;;3.42;100.00;101007.13;5014536;28;20418;-76
2022/04/03 07:34:33;;;;;;;10.30;6.53;;;4.10;97.20;;;3.44;100.00;101013.25;4994142;28;20172;-75
2022/04/03 07:37:00;;;;;;;12.85;11.55;;;4.10;96.90;;;3.46;100.00;101011.53;5034342;28;20029;-74
2022/04/03 07:39:27;;;;;;;10.25;8.48;;;4.20;96.60;;;3.46;100.00;101008.94;4996001;28;20566;-77
2022/04/03 07:41:54;;;;;;;9.02;7.15;;;4.30;96.70;;;3.55;100.00;101011.69;5025617;28;20065;-77
2022/04/03 07:44:21;;;;;;;7.32;6.63;;;4.20;96.70;;;3.62;100.00;101008.31;5010409;28;20073;-76
2022/04/03 07:46:48;;;;;;;9.10;5.85;;;4.30;96.90;;;3.67;100.00;101011.00;5009181;28;20041;-77
2022/04/03 07:49:15;;;;;;;6.93;5.38;;;4.30;96.70;;;3.72;100.00;101011.91;5005012;28;20564;-76
2022/04/03 07:51:42;;;;;;;6.88;5.30;;;4.40;96.50;;;3.81;100.00;101018.97;5009203;28;20069;-77
2022/04/03 07:54:09;;;;;;;5.25;4.70;;;4.30;96.40;;;3.87;100.00;101015.59;5021891;28;20100;-76
2022/04/03 07:56:37;;;;;;;6.32;5.20;;;4.50;96.30;;;3.88;100.00;101015.63;5009258;28;20463;-75
2022/04/03 07:59:10;;;;;;;6.10;5.50;;;4.50;96.00;;;3.92;100.00;101022.63;4987489;28;20436;-77
2022/04/03 08:01:37;;;;;;;7.60;5.57;;;4.50;96.20;;;3.94;100.00;101015.69;5009414;28;20038;-75
2022/04/03 08:04:05;;;;;;;7.85;5.45;;;4.50;95.80;;;4.03;100.00;101021.91;5003751;28;20116;-77
2022/04/03 08:06:31;;;;;;;8.77;5.70;;;4.60;95.40;;;4.10;100.00;101018.50;5008676;28;20049;-75
2022/04/03 08:08:59;;;;;;;9.80;4.93;;;4.70;95.40;;;4.15;100.00;101021.19;4991532;28;20066;-77
2022/04/03 08:11:26;;;;;;;5.85;5.20;;;6.70;95.90;;;4.30;100.00;101023.13;4993573;28;20061;-75
2022/04/03 08:13:53;;;;;;;6.38;5.78;;;4.80;95.60;;;4.43;100.00;101026.75;5008086;28;20038;-77
2022/04/03 08:16:20;;;;;;;6.57;5.43;;;4.90;95.70;;;4.57;100.00;101029.50;5008854;28;20048;-77
2022/04/03 08:18:47;;;;;;;6.90;4.78;;;5.60;95.90;;;4.64;97.57;101021.78;5008299;28;20038;-77
2022/04/03 08:21:14;;;;;;;6.60;4.95;;;5.20;95.10;;;4.72;95.28;101036.63;5009065;28;20546;-77
2022/04/03 08:23:41;;;;;;;5.47;4.80;;;5.70;94.90;;;4.83;90.19;101030.66;5008846;28;20054;-76
2022/04/03 08:26:09;;;;;;;5.50;4.43;;;5.30;94.30;;;4.95;84.31;101029.91;5009060;28;20678;-76
2022/04/03 08:28:36;;;;;;;5.15;4.30;;;5.50;93.70;;;5.04;88.22;101031.72;5008332;28;20046;-76
2022/04/03 08:31:03;;;;;;;7.30;5.30;;;7.40;94.50;;;5.03;87.43;101024.78;5008698;28;20768;-76
2022/04/03 08:33:34;;;;;;;6.60;4.68;;;5.60;94.10;;;5.02;82.05;101033.44;4990424;28;20046;-77
2022/04/03 08:36:03;;;;;;;8.27;5.10;;;6.00;93.40;;;5.03;83.15;101031.72;5007264;28;20704;-76
2022/04/03 08:38:33;;;;;;;8.00;5.10;;;5.70;93.30;;;5.04;78.69;101036.94;5024182;28;20050;-77
2022/04/03 08:41:01;;;;;;;10.35;5.72;;;5.70;92.70;;;4.95;81.59;101023.84;5007568;28;20049;-77
2022/04/03 08:43:32;;;;;;;6.60;5.38;;;5.70;92.90;;;4.87;79.99;101034.19;5005963;28;20049;-76
2022/04/03 08:46:01;;;;;;;8.05;5.65;;;5.70;92.60;;;4.85;83.57;101037.63;5007194;28;20092;-76
2022/04/03 08:48:32;;;;;;;9.20;8.00;;;5.60;92.90;;;4.82;84.25;101041.97;5008481;28;20041;-76
2022/04/03 08:51:03;;;;;;;6.88;5.50;;;7.30;93.40;;;4.68;87.20;101034.00;5009967;28;20064;-74
2022/04/03 08:53:32;;;;;;;6.63;5.55;;;5.50;93.20;;;4.75;93.45;101044.47;5008548;28;20065;-76
2022/04/03 08:55:59;;;;;;;7.10;5.43;;;6.50;94.00;;;4.86;95.39;101048.09;5013595;28;20045;-75
2022/04/03 08:58:27;;;;;;;5.45;4.95;;;5.50;94.20;;;4.83;86.04;101045.41;5020759;28;20038;-75
2022/04/03 09:00:56;;;;;;;9.90;5.82;;;5.60;93.10;;;4.76;87.86;101041.91;5016265;28;20124;-75
2022/04/03 09:03:23;;;;;;;8.02;5.85;;;5.60;93.20;;;4.66;90.07;101046.13;5015476;28;20096;-76
2022/04/03 09:05:51;;;;;;;8.05;5.32;;;6.90;93.60;;;4.86;87.26;101052.41;5012382;28;20042;-76
2022/04/03 09:08:36;;;;;;;6.07;5.45;;;5.50;93.20;;;4.99;83.32;101050.78;5011874;28;20049;-77
2022/04/03 09:11:07;;;;;;;9.60;5.45;;;7.20;93.40;;;5.06;79.03;101047.41;5027441;28;20049;-80
2022/04/03 09:13:37;;;;;;;8.25;5.32;;;5.60;92.70;;;5.11;76.46;101046.59;5008782;28;20116;-77
2022/04/03 09:16:07;;;;;;;7.10;5.07;;;5.70;92.20;;;5.14;72.17;101043.13;5008820;28;20046;-78
2022/04/03 09:19:03;;;;;;;6.63;5.97;;;6.40;91.90;;;5.24;73.82;101051.94;5020750;28;20038;-78
2022/04/03 09:21:32;;;;;;;6.68;5.25;;;5.90;91.70;;;5.25;67.92;101040.63;4956877;28;20431;-78
2022/04/03 09:24:08;;;;;;;8.45;5.03;;;6.80;90.90;;;5.29;66.45;101050.22;5028098;28;20080;-78
2022/04/03 09:26:39;;;;;;;6.07;4.82;;;6.00;90.30;;;5.29;65.99;101045.00;4983622;28;20042;-79
2022/04/03 09:29:14;;;;;;;;;;;6.00;90.00;;;5.29;66.23;101054.56;5032324;28;20738;-79
2022/04/03 09:31:44;;;;;;;7.80;4.78;;;6.00;90.20;;;5.24;62.24;101051.94;5031483;28;19931;-78
2022/04/03 09:34:21;;;;;;;6.13;4.75;;;6.30;88.30;;;5.32;63.91;101055.47;4999018;28;20046;-78
2022/04/03 09:36:55;;;;;;;5.72;4.43;;;6.70;89.20;;;5.37;64.99;101061.59;5033822;28;20485;-80
2022/04/03 09:39:24;;;;;;;11.20;5.75;;;6.00;89.30;;;5.41;66.91;101054.66;5018269;28;20065;-79
2022/04/03 09:42:01;;;;;;;16.02;9.40;;;7.20;90.40;;;5.46;64.63;101058.19;5016564;28;20418;-80
2022/04/03 09:44:37;;;;;;;8.63;5.97;;;7.70;90.00;;;5.53;64.89;101060.00;5032354;28;20111;-78
2022/04/03 09:47:32;;;;;;;5.00;4.30;;;6.20;89.50;;;5.52;62.26;101066.09;5013663;28;20049;-80
2022/04/03 09:50:03;;;;;;;4.72;4.05;;;6.20;87.50;;;5.48;59.32;101066.94;4997650;28;20066;-78
2022/04/03 09:52:39;;;;;;;3.78;3.03;;;6.10;85.90;;;5.51;59.90;101058.22;5017565;28;20034;-78
2022/04/03 09:55:18;;;;;;;5.40;4.60;;;6.40;86.30;;;5.55;57.88;101067.84;5001909;28;20045;-78
2022/04/03 09:57:48;;;;;;;8.75;3.47;;;6.20;84.40;;;5.59;57.22;101059.19;5013177;28;20048;-77
2022/04/03 10:00:41;;;;;;;6.57;4.60;;;6.20;83.70;;;5.62;57.74;101060.91;5011202;28;20041;-77
2022/04/03 10:03:13;;;;;;;6.13;3.72;;;6.30;83.60;;;5.77;57.90;101063.63;5010837;28;20042;-78
2022/04/03 10:05:42;;;;;;;5.18;3.95;;;6.40;84.10;;;5.72;55.57;101054.91;5016403;28;20074;-78
2022/04/03 10:08:11;;;;;;;4.45;4.00;;;6.40;82.70;;;5.75;57.79;101061.91;5011735;28;20049;-78
2022/04/03 10:10:38;;;;;;;10.05;4.55;;;7.40;83.80;;;5.72;54.63;101059.28;5019644;28;20063;-80
2022/04/03 10:13:06;;;;;;;7.30;3.92;;;6.40;80.50;;;5.79;55.59;101061.94;5000152;28;20045;-77
2022/04/03 10:15:34;;;;;;;5.60;4.07;;;6.40;81.70;;;5.77;55.72;101060.16;4988044;28;20057;-78
2022/04/03 10:18:03;;;;;;;5.32;4.18;;;6.40;81.50;;;5.80;56.72;101054.97;5020626;28;20045;-79
2022/04/03 10:20:34;;;;;;;4.63;4.03;;;6.40;81.70;;;5.96;55.57;101050.72;5011676;28;20044;-78
2022/04/03 10:23:10;;;;;;;5.78;4.05;;;6.50;81.40;;;6.13;55.06;101055.22;4988639;28;20136;-78
2022/04/03 10:25:45;;;;;;;5.28;3.60;;;6.60;81.50;;;6.33;56.10;101053.56;4977559;28;20112;-79
2022/04/03 10:28:16;;;;;;;5.35;4.60;;;6.70;82.20;;;6.52;55.56;101054.50;4999369;28;20048;-79